GVAC

Amílcar Cabral International Airport

Espargos, Cape Verde
TAF GVAC 231700Z 2318/2424 04018KT 9999 BKN014
Issued Valid From Valid To
Apr-23 @ 17:00 UTC
(6 hours ago)
Apr-23 @ 18:00 UTC
(5 hours ago)
Apr-25 @ 00:00 UTC
(-1 days ago)
Apr-23 @ 18:00 to Apr-25 @ 00:00
TAF GVAC 231700Z 2318/2424 04018KT 9999 BKN014
Wind Visibility Clouds
40° at 18 knots 10,000+ meters
  • Broken at 1,400' AGL
TAF GVAC 231700Z 2318/2424 04018KT 9999 BKN014
Issued Apr-23 @ 17:00 UTC
(6 hours ago)
Valid From Apr-23 @ 18:00 UTC
(5 hours ago)
Valid To Apr-25 @ 00:00 UTC
(-1 days ago)
Apr-23 @ 18:00 - Apr-25 @ 00:00
Wind Visibility
40° at 18 knots 10,000+ meters
Clouds
  • Broken at 1,400' AGL